createdAt,value
2022-12-08T00:01:06.910Z,26.20
2022-12-08T00:02:10.143Z,27.98
2022-12-08T00:03:13.241Z,26.73
2022-12-08T00:04:16.082Z,28.03
2022-12-08T00:05:37.544Z,28.87
2022-12-08T00:07:01.323Z,28.60
2022-12-08T00:08:23.230Z,29.02
2022-12-08T00:09:39.166Z,27.13
2022-12-08T00:10:49.764Z,28.52
2022-12-08T00:11:57.974Z,29.40
2022-12-08T00:13:00.672Z,28.17
2022-12-08T00:14:03.635Z,28.90
2022-12-08T00:15:07.029Z,27.13
2022-12-08T00:16:10.136Z,27.97
2022-12-08T00:17:15.182Z,32.60
2022-12-08T00:18:17.865Z,28.70
2022-12-08T00:19:21.642Z,30.02
2022-12-08T00:20:24.183Z,26.80
2022-12-08T00:21:26.791Z,28.12
2022-12-08T00:22:29.655Z,28.95
2022-12-08T00:23:32.306Z,28.27
2022-12-08T00:24:39.619Z,26.27
2022-12-08T00:25:42.300Z,27.83
2022-12-08T00:26:45.328Z,30.13
2022-12-08T00:27:47.980Z,29.30
2022-12-08T00:28:51.047Z,24.08
2022-12-08T00:29:53.918Z,29.08
2022-12-08T00:30:56.613Z,27.40
2022-12-08T00:31:59.326Z,26.45
2022-12-08T00:33:02.297Z,26.52
2022-12-08T00:34:05.439Z,25.67
2022-12-08T00:35:08.759Z,28.55
2022-12-08T00:36:14.205Z,26.60
2022-12-08T00:37:16.806Z,28.40
2022-12-08T00:38:19.480Z,25.27
2022-12-08T00:39:22.044Z,27.30
2022-12-08T00:40:24.935Z,26.55
2022-12-08T00:41:46.889Z,24.15
2022-12-08T00:42:49.478Z,25.73
2022-12-08T00:43:52.125Z,24.63
2022-12-08T00:44:54.832Z,28.20
2022-12-08T00:45:57.805Z,28.60
2022-12-08T00:47:00.539Z,26.95
2022-12-08T00:48:03.235Z,24.73
2022-12-08T00:49:06.288Z,25.42
2022-12-08T00:50:09.439Z,26.27
2022-12-08T00:51:12.338Z,27.30
2022-12-08T00:52:15.025Z,26.02
2022-12-08T00:53:17.678Z,25.75
2022-12-08T00:54:20.448Z,25.48
2022-12-08T00:55:23.788Z,27.77
2022-12-08T00:56:27.109Z,26.02
2022-12-08T00:57:29.815Z,26.02
2022-12-08T00:58:32.413Z,27.13
2022-12-08T00:59:35.069Z,24.12
2022-12-08T01:00:40.738Z,28.02
2022-12-08T01:01:45.636Z,28.33
2022-12-08T01:02:48.470Z,27.35
2022-12-08T01:03:51.352Z,26.48
2022-12-08T01:04:54.108Z,28.80
2022-12-08T01:05:56.698Z,27.67
2022-12-08T01:06:59.636Z,32.05
2022-12-08T01:08:02.350Z,26.08
2022-12-08T01:09:08.159Z,28.27
2022-12-08T01:10:10.789Z,27.52
2022-12-08T01:11:17.047Z,27.62
2022-12-08T01:12:19.955Z,27.35
2022-12-08T01:13:22.757Z,27.35
2022-12-08T01:14:25.777Z,26.73
2022-12-08T01:15:28.582Z,28.27
2022-12-08T01:16:34.277Z,25.65
2022-12-08T01:17:38.103Z,25.58
2022-12-08T01:18:40.855Z,28.05
2022-12-08T01:19:43.600Z,28.03
2022-12-08T01:20:46.663Z,28.23
2022-12-08T01:21:49.357Z,26.70
2022-12-08T01:22:52.299Z,28.33
2022-12-08T01:23:55.083Z,25.40
2022-12-08T01:24:57.735Z,28.65
2022-12-08T01:26:07.918Z,29.52
2022-12-08T01:27:10.604Z,26.85
2022-12-08T01:28:13.672Z,30.83
2022-12-08T01:29:16.707Z,31.10
2022-12-08T01:30:20.214Z,26.70
2022-12-08T01:31:23.700Z,25.20
2022-12-08T01:32:26.656Z,28.00
2022-12-08T01:33:29.843Z,24.90
2022-12-08T01:34:32.470Z,28.42
2022-12-08T01:35:35.106Z,27.83
2022-12-08T01:36:38.567Z,26.42
2022-12-08T01:37:41.344Z,26.00
2022-12-08T01:38:44.334Z,27.05
2022-12-08T01:39:47.324Z,27.23
2022-12-08T01:40:50.031Z,28.30
2022-12-08T01:41:52.705Z,29.70
2022-12-08T01:42:55.392Z,30.62
2022-12-08T01:44:08.370Z,28.38
2022-12-08T01:45:33.281Z,28.90
2022-12-08T01:46:38.240Z,30.42
2022-12-08T01:47:49.993Z,30.40
2022-12-08T01:48:58.683Z,28.50
2022-12-08T01:50:03.232Z,32.00
2022-12-08T01:51:07.134Z,29.67
2022-12-08T01:52:26.847Z,30.43
2022-12-08T01:53:35.587Z,30.23
2022-12-08T01:55:02.101Z,30.58
2022-12-08T01:56:15.295Z,28.58
2022-12-08T01:57:27.031Z,32.55
2022-12-08T01:58:34.947Z,30.62
2022-12-08T01:59:46.913Z,28.38
2022-12-08T02:00:51.560Z,30.37
2022-12-08T02:01:54.984Z,28.58
2022-12-08T02:03:00.935Z,29.40
2022-12-08T02:04:07.100Z,30.40
2022-12-08T02:05:10.006Z,28.48
2022-12-08T02:06:13.461Z,30.65
2022-12-08T02:07:17.718Z,34.65
2022-12-08T02:08:20.816Z,29.75
2022-12-08T02:09:24.644Z,33.15
2022-12-08T02:10:30.758Z,28.50
2022-12-08T02:11:33.330Z,30.88
2022-12-08T02:12:36.568Z,30.95
2022-12-08T02:13:41.867Z,31.37
2022-12-08T02:14:44.454Z,31.33
2022-12-08T02:16:28.991Z,32.15
2022-12-08T02:17:37.149Z,28.50
2022-12-08T02:19:33.870Z,33.55
2022-12-08T02:20:48.968Z,28.45
2022-12-08T02:22:07.052Z,30.23
2022-12-08T02:23:15.893Z,32.53
2022-12-08T02:24:46.332Z,32.55
2022-12-08T02:26:26.492Z,31.70
2022-12-08T02:27:54.778Z,36.72
2022-12-08T02:29:16.215Z,43.30
2022-12-08T02:30:22.045Z,42.15
2022-12-08T02:31:52.683Z,36.60
2022-12-08T02:33:13.966Z,31.73
2022-12-08T02:34:35.823Z,29.70
2022-12-08T02:36:05.190Z,32.38
2022-12-08T02:37:41.349Z,29.30
2022-12-08T02:38:43.913Z,29.17
2022-12-08T02:40:02.600Z,27.90
2022-12-08T02:41:28.902Z,32.85
2022-12-08T02:42:52.633Z,28.37
2022-12-08T02:43:59.538Z,28.12
2022-12-08T02:45:17.598Z,29.15
2022-12-08T02:46:35.949Z,35.85
2022-12-08T02:47:39.837Z,32.30
2022-12-08T02:48:42.821Z,28.95
2022-12-08T02:49:45.545Z,30.65
2022-12-08T02:50:48.245Z,32.30
2022-12-08T02:51:51.155Z,30.45
2022-12-08T02:52:54.368Z,32.85
2022-12-08T02:53:57.274Z,32.73
2022-12-08T02:55:09.483Z,32.08
2022-12-08T02:56:12.022Z,33.83
2022-12-08T02:57:46.050Z,31.17
2022-12-08T02:59:04.603Z,30.02
2022-12-08T03:00:10.416Z,35.13
2022-12-08T03:01:25.086Z,53.40
2022-12-08T03:02:48.466Z,58.22
2022-12-08T03:03:51.074Z,37.42
2022-12-08T03:05:02.431Z,35.22
2022-12-08T03:06:10.942Z,32.93
2022-12-08T03:07:35.765Z,42.70
2022-12-08T03:08:53.869Z,39.00
2022-12-08T03:09:59.458Z,35.97
2022-12-08T03:11:25.711Z,35.67
2022-12-08T03:12:37.637Z,38.72
2022-12-08T03:13:56.353Z,34.22
2022-12-08T03:15:10.848Z,33.83
2022-12-08T03:16:17.714Z,33.85
2022-12-08T03:17:24.717Z,29.90
2022-12-08T03:18:33.126Z,34.97
2022-12-08T03:19:41.974Z,35.67
2022-12-08T03:20:47.716Z,39.08
2022-12-08T03:21:54.312Z,30.83
2022-12-08T03:23:00.277Z,31.30
2022-12-08T03:24:06.778Z,28.90
2022-12-08T03:25:14.907Z,30.23
2022-12-08T03:26:25.430Z,30.85
2022-12-08T03:27:30.226Z,31.12
2022-12-08T03:28:33.614Z,30.90
2022-12-08T03:29:36.640Z,31.67
2022-12-08T03:30:43.009Z,28.33
2022-12-08T03:31:56.891Z,30.85
2022-12-08T03:33:09.731Z,32.33
2022-12-08T03:34:14.196Z,31.30
2022-12-08T03:35:22.790Z,29.95
2022-12-08T03:36:26.079Z,28.55
2022-12-08T03:37:29.401Z,43.90
2022-12-08T03:38:40.642Z,73.70
2022-12-08T03:39:43.316Z,58.45
2022-12-08T03:41:06.450Z,64.40
2022-12-08T03:42:09.427Z,45.35
2022-12-08T03:43:12.463Z,36.97
2022-12-08T03:44:15.070Z,36.78
2022-12-08T03:45:17.679Z,31.42
2022-12-08T03:47:24.343Z,40.15
2022-12-08T03:48:27.127Z,37.72
2022-12-08T03:49:29.739Z,41.22
2022-12-08T03:50:32.551Z,47.40
2022-12-08T03:51:35.181Z,39.57
2022-12-08T03:52:38.101Z,42.55
2022-12-08T03:53:40.759Z,37.58
2022-12-08T03:54:43.323Z,42.00
2022-12-08T03:55:45.955Z,34.47
2022-12-08T03:56:48.580Z,31.77
2022-12-08T03:57:51.454Z,33.72
2022-12-08T03:58:54.982Z,33.25
2022-12-08T03:59:57.690Z,33.63
2022-12-08T04:01:00.268Z,35.30
2022-12-08T04:02:03.246Z,31.83
2022-12-08T04:03:06.540Z,32.13
2022-12-08T04:04:09.354Z,32.65
2022-12-08T04:05:11.980Z,29.52
2022-12-08T04:06:15.072Z,30.55
2022-12-08T04:07:18.266Z,33.33
2022-12-08T04:08:21.168Z,31.62
2022-12-08T04:09:23.944Z,31.42
2022-12-08T04:10:26.575Z,27.42
2022-12-08T04:11:29.206Z,32.80
2022-12-08T04:12:32.249Z,32.10
2022-12-08T04:13:36.154Z,31.92
2022-12-08T04:14:38.820Z,33.38
2022-12-08T04:15:45.742Z,70.32
2022-12-08T04:16:48.969Z,48.55
2022-12-08T04:17:51.916Z,34.30
2022-12-08T04:18:54.900Z,30.15
2022-12-08T04:19:57.524Z,32.20
2022-12-08T04:21:00.175Z,33.08
2022-12-08T04:22:02.818Z,32.15
2022-12-08T04:23:05.724Z,33.70
2022-12-08T04:24:09.512Z,35.33
2022-12-08T04:25:12.135Z,32.13
2022-12-08T04:26:14.979Z,32.47
2022-12-08T04:27:17.662Z,33.72
2022-12-08T04:28:21.834Z,31.00
2022-12-08T04:29:24.602Z,31.62
2022-12-08T04:30:27.315Z,30.73
2022-12-08T04:31:29.939Z,32.28
2022-12-08T04:32:32.942Z,33.60
2022-12-08T04:33:35.890Z,30.80
2022-12-08T04:34:38.550Z,31.65
2022-12-08T04:35:41.375Z,35.60
2022-12-08T04:36:44.058Z,28.55
2022-12-08T04:37:47.005Z,26.15
2022-12-08T04:38:50.665Z,31.12
2022-12-08T04:39:53.285Z,29.58
2022-12-08T04:40:55.884Z,34.95
2022-12-08T04:41:58.637Z,32.70
2022-12-08T04:43:01.237Z,31.15
2022-12-08T04:44:04.281Z,35.40
2022-12-08T04:45:07.682Z,31.35
2022-12-08T04:46:11.065Z,34.78
2022-12-08T04:47:13.764Z,28.52
2022-12-08T04:48:16.958Z,30.25
2022-12-08T04:49:19.932Z,33.75
2022-12-08T04:50:22.615Z,35.78
2022-12-08T04:51:25.285Z,36.55
2022-12-08T04:52:27.928Z,30.42
2022-12-08T04:53:30.573Z,31.33
2022-12-08T04:54:33.622Z,31.13
2022-12-08T04:55:40.461Z,33.17
2022-12-08T04:56:43.140Z,29.50
2022-12-08T04:57:46.484Z,30.48
2022-12-08T04:58:49.274Z,30.73
2022-12-08T04:59:52.158Z,29.58
2022-12-08T05:00:54.869Z,29.08
2022-12-08T05:01:57.733Z,29.65
2022-12-08T05:03:00.943Z,31.10
2022-12-08T05:04:03.809Z,32.97
2022-12-08T05:05:07.153Z,29.27
2022-12-08T05:06:13.198Z,27.10
2022-12-08T05:07:16.082Z,28.65
2022-12-08T05:08:18.880Z,27.37
2022-12-08T05:09:21.558Z,27.85
2022-12-08T05:10:24.551Z,29.23
2022-12-08T05:11:27.150Z,26.80
2022-12-08T05:12:29.819Z,31.37
2022-12-08T05:13:32.979Z,27.70
2022-12-08T05:14:35.634Z,29.58
2022-12-08T05:15:38.607Z,28.37
2022-12-08T05:16:41.977Z,27.05
2022-12-08T05:17:45.272Z,27.75
2022-12-08T05:18:47.967Z,31.75
2022-12-08T05:19:50.629Z,29.80
2022-12-08T05:20:53.545Z,29.20
2022-12-08T05:21:56.209Z,31.42
2022-12-08T05:22:58.792Z,31.27
2022-12-08T05:24:01.471Z,29.80
2022-12-08T05:25:04.487Z,27.42
2022-12-08T05:26:07.861Z,30.90
2022-12-08T05:27:10.745Z,30.25
2022-12-08T05:28:40.111Z,31.90
2022-12-08T05:29:37.419Z,28.92
2022-12-08T05:30:40.629Z,27.90
2022-12-08T05:31:43.941Z,27.58
2022-12-08T05:32:46.565Z,28.75
2022-12-08T05:33:50.652Z,28.67
2022-12-08T05:34:53.599Z,30.83
2022-12-08T05:35:56.215Z,30.67
2022-12-08T05:36:59.309Z,30.23
2022-12-08T05:38:02.498Z,31.30
2022-12-08T05:39:05.152Z,35.50
2022-12-08T05:40:08.517Z,32.28
2022-12-08T05:41:21.309Z,30.20
2022-12-08T05:42:25.062Z,27.58
2022-12-08T05:43:27.943Z,33.15
2022-12-08T05:44:30.603Z,31.50
2022-12-08T05:45:33.637Z,35.28
2022-12-08T05:46:37.806Z,29.25
2022-12-08T05:47:40.984Z,32.33
2022-12-08T05:48:43.637Z,28.15
2022-12-08T05:49:46.552Z,30.27
2022-12-08T05:50:53.334Z,30.05
2022-12-08T05:51:56.005Z,31.75
2022-12-08T05:53:02.250Z,30.55
2022-12-08T05:54:04.958Z,33.70
2022-12-08T05:55:08.140Z,35.40
2022-12-08T05:56:12.303Z,32.20
2022-12-08T05:57:15.292Z,34.80
2022-12-08T05:58:22.951Z,34.87
2022-12-08T05:59:25.593Z,31.10
2022-12-08T06:00:28.271Z,39.78
2022-12-08T06:01:32.080Z,40.12
2022-12-08T06:02:35.943Z,61.15
2022-12-08T06:03:38.799Z,36.60
2022-12-08T06:04:41.788Z,32.75
2022-12-08T06:05:46.232Z,63.15
2022-12-08T06:06:50.005Z,50.67
2022-12-08T06:07:52.657Z,56.25
2022-12-08T06:08:55.361Z,37.03
2022-12-08T06:09:58.247Z,41.28
2022-12-08T06:11:00.994Z,36.22
2022-12-08T06:12:04.157Z,36.60
2022-12-08T06:13:06.719Z,33.35
2022-12-08T06:14:12.658Z,35.00
2022-12-08T06:15:15.388Z,29.45
2022-12-08T06:16:19.022Z,35.13
2022-12-08T06:17:22.343Z,34.42
2022-12-08T06:18:29.653Z,33.55
2022-12-08T06:19:35.693Z,37.80
2022-12-08T06:20:38.456Z,33.90
2022-12-08T06:21:41.119Z,39.15
2022-12-08T06:22:44.055Z,41.67
2022-12-08T06:23:53.957Z,42.08
2022-12-08T06:24:56.570Z,42.08
2022-12-08T06:26:07.303Z,42.78
2022-12-08T06:27:09.984Z,38.75
2022-12-08T06:28:13.119Z,34.17
2022-12-08T06:29:15.840Z,37.58
2022-12-08T06:30:18.779Z,41.37
2022-12-08T06:31:25.894Z,34.03
2022-12-08T06:32:28.665Z,32.95
2022-12-08T06:33:31.590Z,32.08
2022-12-08T06:34:34.295Z,36.05
2022-12-08T06:35:37.414Z,34.65
2022-12-08T06:36:40.118Z,34.33
2022-12-08T06:37:43.383Z,37.97
2022-12-08T06:38:46.760Z,37.33
2022-12-08T06:39:49.461Z,48.60
2022-12-08T06:40:56.056Z,48.97
2022-12-08T06:42:17.227Z,38.65
2022-12-08T06:43:19.826Z,42.38
2022-12-08T06:44:22.881Z,40.30
2022-12-08T06:45:25.542Z,36.50
2022-12-08T06:46:28.224Z,37.20
2022-12-08T06:47:31.105Z,38.85
2022-12-08T06:48:34.804Z,35.63
2022-12-08T06:49:37.778Z,34.45
2022-12-08T06:50:40.491Z,35.72
2022-12-08T06:51:43.164Z,36.13
2022-12-08T06:52:58.244Z,43.22
2022-12-08T06:54:05.639Z,34.15
2022-12-08T06:55:09.381Z,34.15
2022-12-08T06:56:13.094Z,40.80
2022-12-08T06:57:15.823Z,36.38
2022-12-08T06:58:18.936Z,41.13
2022-12-08T06:59:21.767Z,40.47
2022-12-08T07:00:25.923Z,36.17
2022-12-08T07:01:28.712Z,40.08
2022-12-08T07:02:31.841Z,38.17
2022-12-08T07:03:35.169Z,38.63
2022-12-08T07:04:37.884Z,42.38
2022-12-08T07:05:40.922Z,44.80
2022-12-08T07:06:43.884Z,55.53
2022-12-08T07:07:46.600Z,50.25
2022-12-08T07:08:49.640Z,57.00
2022-12-08T07:09:52.413Z,53.67
2022-12-08T07:10:55.469Z,49.28
2022-12-08T07:11:58.215Z,52.72
2022-12-08T07:13:00.885Z,46.13
2022-12-08T07:14:03.606Z,54.88
2022-12-08T07:15:07.235Z,51.33
2022-12-08T07:16:12.148Z,48.38
2022-12-08T07:17:15.689Z,50.58
2022-12-08T07:18:18.453Z,48.60
2022-12-08T07:19:21.853Z,54.67
2022-12-08T07:20:29.899Z,57.10
2022-12-08T07:21:39.638Z,57.90
2022-12-08T07:22:47.747Z,63.30
2022-12-08T07:23:55.923Z,116.37
2022-12-08T07:25:00.099Z,133.85
2022-12-08T07:26:06.233Z,101.35
2022-12-08T07:27:09.141Z,86.32
2022-12-08T07:28:12.067Z,68.37
2022-12-08T07:29:14.721Z,68.50
2022-12-08T07:30:17.739Z,73.35
2022-12-08T07:31:23.861Z,72.05
2022-12-08T07:32:30.037Z,71.97
2022-12-08T07:33:33.987Z,73.82
2022-12-08T07:34:36.845Z,80.33
2022-12-08T07:35:40.570Z,71.40
2022-12-08T07:36:45.606Z,68.82
2022-12-08T07:37:48.605Z,68.85
2022-12-08T07:38:53.362Z,74.70
2022-12-08T07:39:55.949Z,75.22
2022-12-08T07:40:58.937Z,73.50
2022-12-08T07:42:01.647Z,74.40
2022-12-08T07:43:04.568Z,73.25
2022-12-08T07:44:07.348Z,73.12
2022-12-08T07:45:10.222Z,74.30
2022-12-08T07:46:14.413Z,66.85
2022-12-08T07:47:17.475Z,91.22
2022-12-08T07:48:20.650Z,86.85
2022-12-08T07:49:23.484Z,83.05
2022-12-08T07:50:33.895Z,102.32
2022-12-08T07:51:36.993Z,88.45
2022-12-08T07:52:39.614Z,77.40
2022-12-08T07:53:48.399Z,84.40
2022-12-08T07:54:54.409Z,90.97
2022-12-08T07:56:06.900Z,92.13
2022-12-08T07:57:09.934Z,145.68
2022-12-08T07:58:12.661Z,128.75
2022-12-08T07:59:15.705Z,157.55
2022-12-08T08:00:37.908Z,131.00
2022-12-08T08:01:45.128Z,88.68
2022-12-08T08:02:48.246Z,89.40
2022-12-08T08:03:51.130Z,89.45
2022-12-08T08:05:00.700Z,79.80
2022-12-08T08:06:04.582Z,81.82
2022-12-08T08:07:07.522Z,93.20
2022-12-08T08:08:11.334Z,132.80
2022-12-08T08:09:14.015Z,137.62
2022-12-08T08:10:23.836Z,118.60
2022-12-08T08:11:26.868Z,142.32
2022-12-08T08:12:31.856Z,145.40
2022-12-08T08:13:35.476Z,132.00
2022-12-08T08:14:38.136Z,111.95
2022-12-08T08:15:47.681Z,106.85
2022-12-08T08:16:50.478Z,97.10
2022-12-08T08:17:53.727Z,81.90
2022-12-08T08:18:56.464Z,76.55
2022-12-08T08:20:49.281Z,64.95
2022-12-08T08:21:51.907Z,58.10
2022-12-08T08:22:54.957Z,59.92
2022-12-08T08:23:57.558Z,59.33
2022-12-08T08:25:00.191Z,60.17
2022-12-08T08:26:09.650Z,61.83
2022-12-08T08:27:12.694Z,61.75
2022-12-08T08:28:15.707Z,64.28
2022-12-08T08:29:18.422Z,66.03
2022-12-08T08:31:12.148Z,67.65
2022-12-08T08:32:14.895Z,87.45
2022-12-08T08:33:17.848Z,78.75
2022-12-08T08:34:20.490Z,57.70
2022-12-08T08:36:13.340Z,54.70
2022-12-08T08:37:15.928Z,59.22
2022-12-08T08:38:19.033Z,78.43
2022-12-08T08:39:21.735Z,42.80
2022-12-08T08:41:18.409Z,42.13
2022-12-08T08:42:27.601Z,49.13
2022-12-08T08:43:37.594Z,46.58
2022-12-08T08:44:40.924Z,50.85
2022-12-08T08:46:58.947Z,48.80
2022-12-08T08:48:01.818Z,42.83
2022-12-08T08:49:04.840Z,52.35
2022-12-08T08:50:08.175Z,46.35
2022-12-08T08:51:13.391Z,48.15
2022-12-08T08:52:16.046Z,44.08
2022-12-08T08:53:25.711Z,45.33
2022-12-08T08:54:30.004Z,51.73
2022-12-08T08:55:32.625Z,50.97
2022-12-08T08:56:35.511Z,49.65
2022-12-08T08:57:38.152Z,48.15
2022-12-08T08:58:41.577Z,55.10
2022-12-08T08:59:44.540Z,55.75
2022-12-08T09:00:47.206Z,58.90
2022-12-08T09:01:50.028Z,54.20
2022-12-08T09:02:52.912Z,64.55
2022-12-08T09:03:56.612Z,45.85
2022-12-08T09:04:59.881Z,56.90
2022-12-08T09:06:02.684Z,57.77
2022-12-08T09:07:05.342Z,51.20
2022-12-08T09:08:08.390Z,43.53
2022-12-08T09:09:11.557Z,40.97
2022-12-08T09:10:14.872Z,43.92
2022-12-08T09:11:18.780Z,44.92
2022-12-08T09:12:21.781Z,42.95
2022-12-08T09:13:24.513Z,42.67
2022-12-08T09:14:27.956Z,49.80
2022-12-08T09:15:31.179Z,50.30
2022-12-08T14:21:20.449Z,65.10
2022-12-08T14:22:25.014Z,55.95
2022-12-08T14:23:28.073Z,53.75
2022-12-08T14:24:32.216Z,59.85
2022-12-08T14:25:35.918Z,50.15
2022-12-08T14:26:38.766Z,52.62
2022-12-08T14:27:43.655Z,49.67
2022-12-08T14:28:46.357Z,46.25
2022-12-08T14:29:52.541Z,50.65
2022-12-08T14:30:55.957Z,45.53
2022-12-08T14:31:58.620Z,52.62
2022-12-08T14:33:04.236Z,50.40
2022-12-08T14:34:06.901Z,45.85
2022-12-08T14:35:09.501Z,50.00
2022-12-08T14:36:15.925Z,52.03
2022-12-08T14:37:18.689Z,48.05
2022-12-08T14:38:24.715Z,48.05
2022-12-08T14:39:27.642Z,52.75
2022-12-08T14:40:40.019Z,49.83
2022-12-08T14:41:59.991Z,48.37
2022-12-08T14:43:13.633Z,45.75
2022-12-08T14:44:23.990Z,47.00
2022-12-08T14:45:26.994Z,46.53
2022-12-08T14:46:29.992Z,48.15
2022-12-08T14:47:34.758Z,51.88
2022-12-08T14:48:37.374Z,52.80
2022-12-08T14:49:40.723Z,53.80
2022-12-08T14:50:55.486Z,58.38
2022-12-08T14:51:59.544Z,63.58
2022-12-08T14:53:02.755Z,59.87
2022-12-08T14:54:13.909Z,72.65
2022-12-08T14:55:17.158Z,54.85
2022-12-08T14:56:51.791Z,53.22
2022-12-08T14:57:55.073Z,52.28
2022-12-08T14:59:23.102Z,56.92
2022-12-08T15:00:27.378Z,70.43
2022-12-08T15:01:30.640Z,68.28
2022-12-08T15:02:33.581Z,67.78
2022-12-08T15:03:36.897Z,55.88
2022-12-08T15:04:44.667Z,63.10
2022-12-08T15:05:52.384Z,56.40
2022-12-08T15:07:07.407Z,56.28
2022-12-08T15:08:13.192Z,51.22
2022-12-08T15:09:41.118Z,55.72
2022-12-08T15:10:48.241Z,56.33
2022-12-08T15:12:26.180Z,51.60
2022-12-08T15:13:30.352Z,50.38
2022-12-08T15:14:36.123Z,53.03
2022-12-08T15:15:58.367Z,47.45
2022-12-08T15:17:01.911Z,56.33
2022-12-08T15:18:35.356Z,54.13
2022-12-08T15:19:38.072Z,58.25
2022-12-08T15:20:44.169Z,54.78
2022-12-08T15:21:47.650Z,54.92
2022-12-08T15:22:50.963Z,53.97
2022-12-08T15:23:53.649Z,47.50
2022-12-08T15:24:57.198Z,57.60
2022-12-08T15:26:00.219Z,53.72
2022-12-08T15:27:04.026Z,52.47
2022-12-08T15:28:06.951Z,51.87
2022-12-08T15:29:30.837Z,50.92
2022-12-08T15:30:34.448Z,50.53
2022-12-08T15:31:37.302Z,51.63
2022-12-08T15:32:40.010Z,57.67
2022-12-08T15:33:43.000Z,49.38
2022-12-08T15:34:47.167Z,49.92
2022-12-08T15:35:50.752Z,61.60
2022-12-08T15:36:54.876Z,50.42
2022-12-08T15:37:57.624Z,58.17
2022-12-08T15:39:00.907Z,59.07
2022-12-08T15:40:16.100Z,85.57
2022-12-08T15:41:18.686Z,68.53
2022-12-08T15:42:21.350Z,55.22
2022-12-08T15:43:24.205Z,53.95
2022-12-08T15:44:27.613Z,53.13
2022-12-08T15:45:32.657Z,48.60
2022-12-08T15:46:48.823Z,48.25
2022-12-08T15:47:52.631Z,71.25
2022-12-08T15:48:58.258Z,78.62
2022-12-08T15:50:04.744Z,53.87
2022-12-08T15:51:07.928Z,54.58
2022-12-08T15:52:14.746Z,69.25
2022-12-08T15:53:17.467Z,61.37
2022-12-08T15:54:20.423Z,58.45
2022-12-08T15:55:23.570Z,48.78
2022-12-08T15:56:27.764Z,48.53
2022-12-08T15:58:57.206Z,47.62
2022-12-08T16:00:00.169Z,55.28
2022-12-08T16:01:03.681Z,51.97
2022-12-08T16:02:06.787Z,51.90
2022-12-08T16:03:51.582Z,49.95
2022-12-08T16:07:30.245Z,49.03
2022-12-08T16:08:56.146Z,53.00
2022-12-08T16:09:56.877Z,50.53
2022-12-08T16:11:56.603Z,56.47
2022-12-08T16:13:55.592Z,49.03
2022-12-08T16:15:23.769Z,45.17
2022-12-08T16:15:59.825Z,47.58
2022-12-08T16:17:03.148Z,48.35
2022-12-08T16:18:06.946Z,48.40
2022-12-08T16:19:14.483Z,44.63
2022-12-08T16:20:18.238Z,47.42
2022-12-08T16:21:53.499Z,50.20
2022-12-08T16:22:56.422Z,52.67
2022-12-08T16:24:08.901Z,45.75
2022-12-08T16:25:18.784Z,56.05
2022-12-08T16:27:13.875Z,53.60
2022-12-08T16:28:01.172Z,55.60
2022-12-08T16:29:07.059Z,57.85
2022-12-08T16:30:15.596Z,55.15
2022-12-08T16:31:22.792Z,54.88
2022-12-08T16:32:26.802Z,52.45
2022-12-08T16:33:29.613Z,51.33
2022-12-08T16:34:32.677Z,49.50
2022-12-08T16:35:35.857Z,55.75
2022-12-08T16:36:38.794Z,54.50
2022-12-08T16:37:41.774Z,55.17
2022-12-08T16:38:45.048Z,54.40
2022-12-08T16:39:50.357Z,59.00
2022-12-08T16:41:11.935Z,63.50
2022-12-08T16:42:34.231Z,72.93
2022-12-08T16:43:36.861Z,66.43
2022-12-08T16:44:42.451Z,74.12
2022-12-08T16:45:46.097Z,72.70
2022-12-08T16:46:49.180Z,64.47
2022-12-08T16:47:55.043Z,62.58
2022-12-08T16:48:59.179Z,56.83
2022-12-08T16:50:15.309Z,59.25
2022-12-08T16:51:25.106Z,50.83
2022-12-08T16:52:30.459Z,47.65
2022-12-08T16:53:33.203Z,47.38
2022-12-08T16:54:36.022Z,58.63
2022-12-08T16:55:39.547Z,51.78
2022-12-08T16:56:43.323Z,53.70
2022-12-08T16:57:47.893Z,56.03
2022-12-08T16:58:50.641Z,74.68
2022-12-08T16:59:53.536Z,49.50
2022-12-08T17:00:56.854Z,68.95
2022-12-08T17:02:00.325Z,54.50
2022-12-08T17:03:04.912Z,49.97
2022-12-08T17:04:30.329Z,51.40
2022-12-08T17:05:31.266Z,61.28
2022-12-08T17:06:34.130Z,50.83
2022-12-08T17:07:37.274Z,48.67
2022-12-08T17:08:42.287Z,55.42
2022-12-08T17:09:45.566Z,57.03
2022-12-08T17:11:07.566Z,52.27
2022-12-08T17:12:10.745Z,50.95
2022-12-08T17:13:17.220Z,46.72
2022-12-08T17:14:20.013Z,49.15
2022-12-08T17:15:25.942Z,54.15
2022-12-08T17:16:28.923Z,48.17
2022-12-08T17:17:34.800Z,49.50
2022-12-08T17:18:38.812Z,51.90
2022-12-08T17:19:41.642Z,55.72
2022-12-08T17:20:45.061Z,64.07
2022-12-08T17:21:48.297Z,62.03
2022-12-08T17:22:55.656Z,75.65
2022-12-08T17:23:58.670Z,81.50
2022-12-08T17:25:02.940Z,103.87
2022-12-08T17:26:07.320Z,50.58
2022-12-08T17:27:10.095Z,46.92
2022-12-08T17:28:26.485Z,57.55
2022-12-08T17:29:39.648Z,58.08
2022-12-08T17:30:42.873Z,51.67
2022-12-08T17:31:46.024Z,51.50
2022-12-08T17:32:49.845Z,50.33
2022-12-08T17:33:54.724Z,52.30
2022-12-08T17:34:58.147Z,45.17
2022-12-08T17:36:01.178Z,45.70
2022-12-08T17:37:03.988Z,55.40
2022-12-08T17:38:06.720Z,53.83
2022-12-08T17:39:14.963Z,49.40
2022-12-08T17:40:22.887Z,46.65
2022-12-08T17:41:28.303Z,51.85
2022-12-08T17:42:32.609Z,59.28
2022-12-08T17:43:36.348Z,48.50
2022-12-08T17:44:39.903Z,47.47
2022-12-08T17:45:46.622Z,50.55
2022-12-08T17:46:52.900Z,44.60
2022-12-08T17:48:02.459Z,51.58
2022-12-08T17:49:10.716Z,48.47
2022-12-08T17:50:13.728Z,50.33
2022-12-08T17:51:18.234Z,47.33
2022-12-08T17:52:21.093Z,54.10
2022-12-08T17:53:24.060Z,49.03
2022-12-08T17:54:27.895Z,55.20
2022-12-08T17:55:32.196Z,64.93
2022-12-08T17:56:40.784Z,48.13
2022-12-08T17:57:44.087Z,85.82
2022-12-08T17:58:51.284Z,60.00
2022-12-08T17:59:57.147Z,66.87
2022-12-08T18:01:00.851Z,118.40
2022-12-08T18:02:04.706Z,75.22
2022-12-08T18:03:09.178Z,58.70
2022-12-08T18:04:14.148Z,79.30
2022-12-08T18:05:18.429Z,58.60
2022-12-08T18:06:25.693Z,79.93
2022-12-08T18:07:31.872Z,64.12
2022-12-08T18:08:35.796Z,69.37
2022-12-08T18:09:39.480Z,59.80
2022-12-08T18:10:47.129Z,49.88
2022-12-08T18:11:50.223Z,62.40
2022-12-08T18:12:53.579Z,54.15
2022-12-08T18:13:57.328Z,58.70
2022-12-08T18:15:00.885Z,72.72
2022-12-08T18:16:06.432Z,51.07
2022-12-08T18:17:09.885Z,58.47
2022-12-08T18:18:13.982Z,59.78
2022-12-08T18:19:16.996Z,61.70
2022-12-08T18:20:19.930Z,59.78
2022-12-08T18:21:23.726Z,56.05
2022-12-08T18:22:27.136Z,50.60
2022-12-08T18:23:30.539Z,64.75
2022-12-08T18:24:33.257Z,67.43
2022-12-08T18:25:36.879Z,56.92
2022-12-08T18:26:40.470Z,52.73
2022-12-08T18:27:44.296Z,54.25
2022-12-08T18:28:47.608Z,60.20
2022-12-08T18:29:51.876Z,65.35
2022-12-08T18:30:55.935Z,72.28
2022-12-08T18:31:59.408Z,64.75
2022-12-08T18:33:09.150Z,52.30
2022-12-08T18:34:13.462Z,53.25
2022-12-08T18:35:17.322Z,56.35
2022-12-08T18:36:24.827Z,49.25
2022-12-08T18:37:28.240Z,57.13
2022-12-08T18:38:32.332Z,50.12
2022-12-08T18:39:36.597Z,56.30
2022-12-08T18:40:40.338Z,47.60
2022-12-08T18:41:43.844Z,48.47
2022-12-08T18:42:47.880Z,49.78
2022-12-08T18:43:53.844Z,52.95
2022-12-08T18:45:05.688Z,53.05
2022-12-08T18:46:12.109Z,52.13
2022-12-08T18:47:16.049Z,53.92
2022-12-08T18:48:20.728Z,56.57
2022-12-08T18:49:24.245Z,53.65
2022-12-08T18:50:28.151Z,54.15
2022-12-08T18:51:31.536Z,50.50
2022-12-08T18:52:35.690Z,52.85
2022-12-08T18:53:41.881Z,57.05
2022-12-08T18:55:10.192Z,56.45
2022-12-08T18:56:27.807Z,53.55
2022-12-08T18:57:31.123Z,50.28
2022-12-08T18:58:36.364Z,40.92
2022-12-08T18:59:41.061Z,45.50
2022-12-08T19:00:44.925Z,52.13
2022-12-08T19:01:49.162Z,52.42
2022-12-08T19:02:52.830Z,50.45
2022-12-08T19:05:26.397Z,50.33
2022-12-08T19:06:30.996Z,52.28
2022-12-08T19:07:35.521Z,57.38
2022-12-08T19:08:43.742Z,62.08
2022-12-08T19:09:47.180Z,59.08
2022-12-08T19:10:50.937Z,61.80
2022-12-08T19:11:54.719Z,80.47
2022-12-08T19:12:58.332Z,82.55
2022-12-08T19:14:03.464Z,63.38
2022-12-08T19:15:09.189Z,54.55
2022-12-08T19:16:14.634Z,71.18
2022-12-08T19:17:18.409Z,47.67
2022-12-08T19:18:23.729Z,63.55
2022-12-08T19:19:28.954Z,71.68
2022-12-08T19:20:32.355Z,59.22
2022-12-08T19:21:41.392Z,57.67
2022-12-08T19:22:48.992Z,70.43
2022-12-08T19:23:58.799Z,63.78
2022-12-08T19:25:02.827Z,59.65
2022-12-08T19:26:07.684Z,53.87